This is the latest recevied weather packets stored in our database for station/object DM4XI-13. If no packets are shown the sender has not sent any weather packets the latest 1 day(s).
| Time | Temp. | Humidity | Pressure | Rain* | Wind** | Luminosity | Snow |
|---|---|---|---|---|---|---|---|
| 1778071033 | 22.22° C | 43% | 1003.6 hPa | 0 mm | 1.79 m/s, 314° | 464 W/m² | - |
| 1778070423 | 20.56° C | 48% | 1003.9 hPa | 0 mm | 0 m/s | 357 W/m² | - |
| 1778070301 | 20.56° C | 47% | 1003.9 hPa | 0 mm | 0.45 m/s, 154° | 359 W/m² | - |
| 1778070240 | 20.56° C | 47% | 1003.9 hPa | 0 mm | 0 m/s | 363 W/m² | - |
| 1778069874 | 20.56° C | 48% | 1003.8 hPa | 0 mm | 0.45 m/s, 184° | 384 W/m² | - |
| 1778069568 | 20.56° C | 50% | 1004 hPa | 0 mm | 0.89 m/s, 175° | 426 W/m² | - |
| 1778069385 | 20.56° C | 48% | 1003.8 hPa | 0 mm | 0.89 m/s, 184° | 406 W/m² | - |
| 1778069141 | 21.67° C | 47% | 1004 hPa | 0 mm | 0.89 m/s, 177° | 398 W/m² | - |
| 1778069080 | 21.67° C | 45% | 1004.2 hPa | 0 mm | 1.34 m/s, 190° | 433 W/m² | - |
| 1778068287 | 20° C | 54% | 1004.4 hPa | 0 mm | 0.45 m/s, 226° | 632 W/m² | - |
| 1778068226 | 20° C | 53% | 1004.3 hPa | 0 mm | 0.89 m/s, 186° | 592 W/m² | - |
| 1778068165 | 19.44° C | 51% | 1004.3 hPa | 0 mm | 0 m/s | 504 W/m² | - |
| 1778068043 | 19.44° C | 53% | 1004.1 hPa | 0 mm | 1.34 m/s, 264° | 808 W/m² | - |
| 1778067860 | 19.44° C | 54% | 1004.2 hPa | 0 mm | 0.89 m/s, 177° | 538 W/m² | - |
| 1778067799 | 19.44° C | 52% | 1004.2 hPa | 0 mm | 0.89 m/s, 183° | 399 W/m² | - |
| 1778067738 | 19.44° C | 53% | 1004.2 hPa | 0 mm | 0.89 m/s, 206° | 481 W/m² | - |
| 1778067677 | 19.44° C | 55% | 1004.2 hPa | 0 mm | 1.79 m/s, 164° | 570 W/m² | - |
| 1778067616 | 18.89° C | 53% | 1004.2 hPa | 0 mm | 1.79 m/s, 185° | 559 W/m² | - |
| 1778067494 | 19.44° C | 53% | 1004.2 hPa | 0 mm | 0.89 m/s, 187° | 494 W/m² | - |
| 1778067433 | 19.44° C | 53% | 1004.3 hPa | 0 mm | 1.79 m/s, 177° | 528 W/m² | - |
| 1778067311 | 18.89° C | 53% | 1004.2 hPa | 0 mm | 0.45 m/s, 180° | 415 W/m² | - |
| 1778067250 | 18.89° C | 53% | 1004.1 hPa | 0 mm | 0.45 m/s, 184° | 316 W/m² | - |
| 1778067067 | 18.33° C | 55% | 1004.3 hPa | 0 mm | 0 m/s | 274 W/m² | - |
| 1778066946 | 18.33° C | 56% | 1004.3 hPa | 0 mm | 0.45 m/s, 174° | 287 W/m² | - |
| 1778066640 | 18.33° C | 55% | 1004.5 hPa | 0 mm | 1.34 m/s, 167° | 294 W/m² | - |
* Rain latest hour (hover to see other rain measurements)
** Current wind speed in m/s (hover to see current wind gust speed)